»·PEaware :: QXE2257 KSEA-KRNO

QXE2257 :: KSEA-KRNO

FLIGHT INFORMATION

Flight Status: Arrived
Operator:
Horizon Air
More flights by this operator :: More flights under this callsign
Pilot: Anonymous 16594 (16594)
Aircraft: DEHAVILLAND DASH 8 400
(DH8D)
More flights by this aircraft type
Origin: KSEA Seattle-Tacoma Intl
United States
Destination: KRNO Reno/Tahoe Intl
United States
More flights between these airports :: More routes between these airports
Route: +SUMMA9 SUMMA LKV J5 HARTT EELZA2
File this flight plan on PilotEdge
Remarks:
Altitude:
(Current/Filed)
25,000ft
Speed:
(Current/Filed)
322kts
Departed: 20-Sep-17 05:33 PM
Arrived: 20-Sep-17 07:31 PM
Distance/Time
Traveled:
489nm/1:57
Distance/Time
To Go:
Arrived

Flight Plot

Page will automatically refresh every two minutes.

Flight plan parsing failed; only flown route is shown


Map Options




Map Legend


Flown Route
Filed Route
Departure Airport
Arrival Airport
Navaid (VOR, NDB)
Fix

Horizontal Profiles

Position Reports

Time Latitude Longitude Heading Altitude Ground
Speed
20-Sep-17 16:54 47.441789 -122.301687 36 440ft 0kts
20-Sep-17 16:55 47.441789 -122.301687 36 440ft 0kts
20-Sep-17 16:56 47.441789 -122.301687 36 440ft 0kts
20-Sep-17 16:57 47.441789 -122.301687 36 440ft 0kts
20-Sep-17 16:58 47.441789 -122.301687 36 440ft 0kts
20-Sep-17 16:59 47.441789 -122.301687 36 440ft 0kts
20-Sep-17 17:00 47.441789 -122.301687 36 440ft 0kts
20-Sep-17 17:01 47.441789 -122.301687 36 440ft 0kts
20-Sep-17 17:02 47.441789 -122.301687 36 440ft 0kts
20-Sep-17 17:03 47.441789 -122.301687 36 440ft 0kts
20-Sep-17 17:04 47.441789 -122.301687 36 440ft 0kts
20-Sep-17 17:05 47.441789 -122.301686 36 440ft 0kts
20-Sep-17 17:06 47.441789 -122.301686 36 440ft 0kts
20-Sep-17 17:07 47.441608 -122.301888 36 440ft 2kts
20-Sep-17 17:08 47.441212 -122.302330 36 440ft 0kts
20-Sep-17 17:09 47.441212 -122.302330 36 440ft 0kts
20-Sep-17 17:10 47.441212 -122.302330 36 440ft 0kts
20-Sep-17 17:11 47.441212 -122.302330 36 440ft 0kts
20-Sep-17 17:12 47.441212 -122.302330 36 440ft 0kts
20-Sep-17 17:13 47.441212 -122.302330 36 440ft 0kts
20-Sep-17 17:14 47.441212 -122.302330 36 440ft 0kts
20-Sep-17 17:15 47.441212 -122.302330 36 441ft 0kts
20-Sep-17 17:16 47.441212 -122.302330 36 441ft 0kts
20-Sep-17 17:17 47.441212 -122.302330 36 441ft 0kts
20-Sep-17 17:18 47.441201 -122.302309 36 441ft 0kts
20-Sep-17 17:19 47.441201 -122.302309 36 441ft 0kts
20-Sep-17 17:20 47.441201 -122.302309 36 440ft 0kts
20-Sep-17 17:21 47.441201 -122.302309 36 440ft 0kts
20-Sep-17 17:22 47.441201 -122.302309 36 440ft 0kts
20-Sep-17 17:23 47.441201 -122.302309 36 440ft 0kts
20-Sep-17 17:24 47.441201 -122.302309 36 440ft 0kts
20-Sep-17 17:25 47.441201 -122.302309 36 440ft 0kts
20-Sep-17 17:26 47.441201 -122.302309 36 440ft 0kts
20-Sep-17 17:27 47.440273 -122.302734 223 440ft 15kts
20-Sep-17 17:28 47.440438 -122.306231 359 440ft 4kts
20-Sep-17 17:29 47.442846 -122.306153 0 440ft 10kts
20-Sep-17 17:30 47.447363 -122.306149 359 440ft 19kts
20-Sep-17 17:31 47.452171 -122.306202 359 440ft 11kts
20-Sep-17 17:32 47.455616 -122.306180 0 440ft 12kts
20-Sep-17 17:33 47.459626 -122.306143 359 440ft 16kts
20-Sep-17 17:34 47.463429 -122.306720 271 440ft 0kts
20-Sep-17 17:35 47.463429 -122.306717 271 440ft 0kts
20-Sep-17 17:36 47.462119 -122.307736 180 440ft 25kts
20-Sep-17 17:37 47.426627 -122.306696 175 1525ft 169kts
20-Sep-17 17:38 47.376404 -122.312220 183 3893ft 191kts
20-Sep-17 17:39 47.319242 -122.312967 179 6510ft 212kts
20-Sep-17 17:40 47.260671 -122.309124 182 9379ft 215kts
20-Sep-17 17:41 47.204452 -122.272570 146 11919ft 236kts
20-Sep-17 17:42 47.146306 -122.230259 166 13989ft 237kts
20-Sep-17 17:43 47.079965 -122.200338 166 15115ft 275kts
20-Sep-17 17:44 47.003178 -122.164960 165 16337ft 279kts
20-Sep-17 17:45 46.933629 -122.132573 166 18445ft 256kts
20-Sep-17 17:46 46.864960 -122.101160 166 19813ft 261kts
20-Sep-17 17:47 46.794464 -122.068925 166 21012ft 267kts
20-Sep-17 17:48 46.723339 -122.036440 166 22075ft 271kts
20-Sep-17 17:49 46.650327 -122.003138 166 23038ft 276kts
20-Sep-17 17:50 46.576749 -121.971464 169 23896ft 278kts
20-Sep-17 17:51 46.500933 -121.943280 169 24675ft 282kts
20-Sep-17 17:52 46.423571 -121.914096 168 24988ft 300kts
20-Sep-17 17:53 46.339483 -121.881825 168 24998ft 322kts
20-Sep-17 17:54 46.251547 -121.848123 168 24997ft 335kts
20-Sep-17 17:55 46.161749 -121.813886 169 24995ft 334kts
20-Sep-17 17:56 46.072333 -121.779941 169 24996ft 333kts
20-Sep-17 17:57 45.982899 -121.746110 169 24995ft 332kts
20-Sep-17 17:58 45.894043 -121.712579 169 24996ft 330kts
20-Sep-17 17:59 45.805276 -121.679211 169 24996ft 329kts
20-Sep-17 18:00 45.717168 -121.646200 169 24996ft 329kts
20-Sep-17 18:01 45.629125 -121.613318 169 24996ft 328kts
20-Sep-17 18:02 45.541117 -121.580556 169 24996ft 328kts
20-Sep-17 18:03 45.456065 -121.548995 169 24996ft 328kts
20-Sep-17 18:04 45.367846 -121.516362 169 24996ft 328kts
20-Sep-17 18:05 45.294963 -121.489481 169 24996ft 328kts
20-Sep-17 18:06 45.207048 -121.457150 169 24996ft 328kts
20-Sep-17 18:07 45.106287 -121.420223 169 24996ft 327kts
20-Sep-17 18:08 45.030944 -121.392698 169 24996ft 327kts
20-Sep-17 18:09 44.928649 -121.355447 169 24996ft 327kts
20-Sep-17 18:10 44.855012 -121.328717 169 24996ft 327kts
20-Sep-17 18:11 44.766756 -121.296784 169 24996ft 328kts
20-Sep-17 18:12 44.664300 -121.259824 169 24996ft 328kts
20-Sep-17 18:13 44.590971 -121.233456 169 24996ft 328kts
20-Sep-17 18:14 44.502677 -121.201797 169 24996ft 328kts
20-Sep-17 18:15 44.414909 -121.170424 169 24996ft 328kts
20-Sep-17 18:16 44.326409 -121.138889 169 24996ft 327kts
20-Sep-17 18:17 44.238041 -121.107498 169 24996ft 328kts
20-Sep-17 18:18 44.150234 -121.076449 169 24996ft 327kts
20-Sep-17 18:19 44.062298 -121.045783 169 24996ft 328kts
20-Sep-17 18:20 43.974434 -121.014799 169 24996ft 328kts
20-Sep-17 18:21 43.885395 -120.983558 169 24996ft 328kts
20-Sep-17 18:22 43.796950 -120.952634 169 24996ft 328kts
20-Sep-17 18:23 43.708895 -120.921924 169 24996ft 328kts
20-Sep-17 18:24 43.620677 -120.891254 169 24996ft 328kts
20-Sep-17 18:25 43.532185 -120.860582 169 24996ft 328kts
20-Sep-17 18:26 43.443952 -120.830091 169 24996ft 328kts
20-Sep-17 18:27 43.355725 -120.799694 169 24996ft 328kts
20-Sep-17 18:28 43.267580 -120.769416 169 24996ft 328kts
20-Sep-17 18:29 43.179336 -120.739194 169 24996ft 328kts
20-Sep-17 18:30 43.091022 -120.709039 169 24996ft 328kts
20-Sep-17 18:31 43.002469 -120.678892 169 24996ft 328kts
20-Sep-17 18:32 42.914158 -120.648915 169 24996ft 328kts
20-Sep-17 18:33 42.825620 -120.618951 169 24996ft 328kts
20-Sep-17 18:34 42.737517 -120.589222 169 24996ft 328kts
20-Sep-17 18:35 42.649213 -120.559512 169 24996ft 328kts
20-Sep-17 18:36 42.560589 -120.529781 169 24996ft 328kts
20-Sep-17 18:37 42.472951 -120.500674 170 24996ft 328kts
20-Sep-17 18:38 42.384592 -120.474562 171 24996ft 328kts
20-Sep-17 18:39 42.295848 -120.448257 171 24996ft 328kts
20-Sep-17 18:40 42.207203 -120.421748 171 24996ft 328kts
20-Sep-17 18:41 42.118261 -120.395225 171 24996ft 328kts
20-Sep-17 18:42 42.029174 -120.368764 171 24996ft 328kts
20-Sep-17 18:43 41.940718 -120.342552 171 24996ft 328kts
20-Sep-17 18:44 41.851858 -120.316292 171 24996ft 328kts
20-Sep-17 18:45 41.763269 -120.290190 171 24996ft 328kts
20-Sep-17 18:46 41.673718 -120.263877 171 24996ft 328kts
20-Sep-17 18:47 41.584729 -120.237803 171 24996ft 328kts
20-Sep-17 18:48 41.495531 -120.211744 171 24996ft 328kts
20-Sep-17 18:49 41.406318 -120.185752 171 24996ft 328kts
20-Sep-17 18:50 41.317438 -120.159931 171 24996ft 328kts
20-Sep-17 18:51 41.228591 -120.134191 171 24996ft 328kts
20-Sep-17 18:52 41.139585 -120.108477 171 24996ft 328kts
20-Sep-17 18:53 41.050707 -120.082917 171 24996ft 328kts
20-Sep-17 18:54 40.961490 -120.057260 171 24996ft 328kts
20-Sep-17 18:55 40.872614 -120.031774 171 24996ft 328kts
20-Sep-17 18:56 40.783871 -120.005126 169 24996ft 329kts
20-Sep-17 18:57 40.695131 -119.975711 170 24996ft 329kts
20-Sep-17 18:58 40.605735 -119.946997 170 24473ft 336kts
20-Sep-17 18:59 40.517619 -119.918512 170 23657ft 312kts
20-Sep-17 19:00 40.438080 -119.892897 171 22840ft 277kts
20-Sep-17 19:01 40.365674 -119.869979 171 22061ft 275kts
20-Sep-17 19:02 40.287962 -119.845487 170 21274ft 299kts
20-Sep-17 19:03 40.205340 -119.819044 170 20478ft 311kts
20-Sep-17 19:04 40.120752 -119.792154 170 19682ft 316kts
20-Sep-17 19:05 40.035161 -119.762943 161 18881ft 322kts
20-Sep-17 19:06 39.954035 -119.705654 155 17082ft 343kts
20-Sep-17 19:07 39.867388 -119.676451 184 15172ft 305kts
20-Sep-17 19:08 39.787862 -119.675077 183 13559ft 265kts
20-Sep-17 19:09 39.719560 -119.672713 184 12180ft 223kts
20-Sep-17 19:10 39.664639 -119.670985 184 12116ft 205kts
20-Sep-17 19:11 39.600609 -119.669575 183 11870ft 256kts
20-Sep-17 19:12 39.527477 -119.666799 183 11435ft 251kts
20-Sep-17 19:13 39.462758 -119.663229 174 11100ft 216kts
20-Sep-17 19:14 39.409329 -119.657091 184 11071ft 170kts
20-Sep-17 19:15 39.368417 -119.636183 99 10840ft 208kts
20-Sep-17 19:16 39.371737 -119.566222 126 10532ft 257kts
20-Sep-17 19:17 39.303411 -119.537905 179 9405ft 273kts
20-Sep-17 19:18 39.227184 -119.528840 178 9996ft 282kts
20-Sep-17 19:19 39.155561 -119.558098 239 10078ft 282kts
20-Sep-17 19:20 39.160304 -119.651913 284 10086ft 262kts
20-Sep-17 19:21 39.179534 -119.742027 287 9373ft 253kts
20-Sep-17 19:22 39.234065 -119.782691 353 9906ft 221kts
20-Sep-17 19:23 39.279390 -119.751044 79 11089ft 231kts
20-Sep-17 19:24 39.271559 -119.663712 125 11080ft 247kts
20-Sep-17 19:25 39.213235 -119.634468 174 11087ft 225kts
20-Sep-17 19:26 39.153731 -119.627110 215 11081ft 202kts
20-Sep-17 19:27 39.144628 -119.689942 274 11088ft 185kts
20-Sep-17 19:28 39.174750 -119.738695 338 10604ft 217kts
20-Sep-17 19:29 39.234974 -119.754265 347 9604ft 221kts
20-Sep-17 19:30 39.294977 -119.760276 352 8687ft 219kts
20-Sep-17 19:31 39.354124 -119.764473 359 7503ft 186kts
20-Sep-17 19:32 39.402176 -119.766487 352 6194ft 157kts
20-Sep-17 19:33 39.445239 -119.769103 0 5246ft 151kts
20-Sep-17 19:34 39.485627 -119.769358 1 4423ft 118kts
20-Sep-17 19:35 39.497753 -119.769585 299 4422ft 3kts
20-Sep-17 19:36 39.499105 -119.770705 0 4422ft 14kts
20-Sep-17 19:37 39.504391 -119.771220 266 4422ft 11kts
20-Sep-17 19:38 39.505023 -119.772851 0 4422ft 0kts
20-Sep-17 19:39 39.505023 -119.772851 0 4422ft 0kts

Navigation Log

Ident Type
Flight plan parsing failed, navigation log unavailable